sensor_id;sensor_type;location;lat;lon;timestamp;pressure;altitude;pressure_sealevel;temperature;humidity
24788;BME280;12883;52.662;5.196;2022-11-18T00:02:10;99412.41;;;10.04;100.00
24788;BME280;12883;52.662;5.196;2022-11-18T00:04:36;99417.22;;;10.07;100.00
24788;BME280;12883;52.662;5.196;2022-11-18T00:07:01;99420.44;;;10.09;100.00
24788;BME280;12883;52.662;5.196;2022-11-18T00:09:26;99423.53;;;9.94;100.00
24788;BME280;12883;52.662;5.196;2022-11-18T00:11:52;99434.69;;;9.96;100.00
24788;BME280;12883;52.662;5.196;2022-11-18T00:14:35;99431.81;;;9.86;100.00
24788;BME280;12883;52.662;5.196;2022-11-18T00:17:03;99438.59;;;9.94;100.00
24788;BME280;12883;52.662;5.196;2022-11-18T00:19:30;99433.06;;;9.84;100.00
24788;BME280;12883;52.662;5.196;2022-11-18T00:21:56;99434.22;;;9.88;100.00
24788;BME280;12883;52.662;5.196;2022-11-18T00:24:22;99445.41;;;9.90;100.00
24788;BME280;12883;52.662;5.196;2022-11-18T00:26:48;99446.19;;;9.90;100.00
24788;BME280;12883;52.662;5.196;2022-11-18T00:29:14;99438.16;;;9.97;100.00
24788;BME280;12883;52.662;5.196;2022-11-18T00:31:39;99426.28;;;9.88;100.00
24788;BME280;12883;52.662;5.196;2022-11-18T00:34:05;99443.47;;;9.97;100.00
24788;BME280;12883;52.662;5.196;2022-11-18T00:36:31;99470.88;;;9.91;100.00
24788;BME280;12883;52.662;5.196;2022-11-18T00:38:56;99456.59;;;9.92;100.00
24788;BME280;12883;52.662;5.196;2022-11-18T00:41:22;99448.50;;;9.98;100.00
24788;BME280;12883;52.662;5.196;2022-11-18T00:43:47;99454.41;;;9.89;100.00
24788;BME280;12883;52.662;5.196;2022-11-18T00:46:13;99420.16;;;9.64;100.00
24788;BME280;12883;52.662;5.196;2022-11-18T00:48:39;99451.75;;;9.89;100.00
24788;BME280;12883;52.662;5.196;2022-11-18T00:51:16;99461.41;;;9.83;100.00
24788;BME280;12883;52.662;5.196;2022-11-18T00:53:42;99460.13;;;9.86;100.00
24788;BME280;12883;52.662;5.196;2022-11-18T00:56:08;99440.31;;;9.65;100.00
24788;BME280;12883;52.662;5.196;2022-11-18T00:58:34;99463.97;;;9.90;100.00
24788;BME280;12883;52.662;5.196;2022-11-18T01:01:00;99463.69;;;9.80;100.00
24788;BME280;12883;52.662;5.196;2022-11-18T01:03:26;99467.72;;;9.82;100.00
24788;BME280;12883;52.662;5.196;2022-11-18T01:05:52;99472.94;;;9.89;100.00
24788;BME280;12883;52.662;5.196;2022-11-18T01:08:17;99476.59;;;9.88;100.00
24788;BME280;12883;52.662;5.196;2022-11-18T01:10:44;99482.25;;;9.80;100.00
24788;BME280;12883;52.662;5.196;2022-11-18T01:13:15;99486.59;;;9.74;100.00
24788;BME280;12883;52.662;5.196;2022-11-18T01:15:51;99491.78;;;9.81;100.00
24788;BME280;12883;52.662;5.196;2022-11-18T01:18:19;99488.22;;;9.75;100.00
24788;BME280;12883;52.662;5.196;2022-11-18T01:20:45;99488.72;;;9.54;100.00
24788;BME280;12883;52.662;5.196;2022-11-18T01:23:11;99498.91;;;9.69;100.00
24788;BME280;12883;52.662;5.196;2022-11-18T01:25:38;99499.72;;;9.69;100.00
24788;BME280;12883;52.662;5.196;2022-11-18T01:28:04;99466.16;;;9.52;100.00
24788;BME280;12883;52.662;5.196;2022-11-18T01:30:35;99501.56;;;9.69;100.00
24788;BME280;12883;52.662;5.196;2022-11-18T01:33:02;99507.53;;;9.64;100.00
24788;BME280;12883;52.662;5.196;2022-11-18T01:35:28;99516.28;;;9.65;100.00
24788;BME280;12883;52.662;5.196;2022-11-18T01:37:53;99522.50;;;9.70;100.00
24788;BME280;12883;52.662;5.196;2022-11-18T01:40:19;99526.31;;;9.63;100.00
24788;BME280;12883;52.662;5.196;2022-11-18T01:42:44;99528.78;;;9.76;100.00
24788;BME280;12883;52.662;5.196;2022-11-18T01:45:24;99530.53;;;9.82;100.00
24788;BME280;12883;52.662;5.196;2022-11-18T01:50:28;99532.31;;;9.70;100.00
24788;BME280;12883;52.662;5.196;2022-11-18T01:52:58;99534.47;;;9.61;100.00
24788;BME280;12883;52.662;5.196;2022-11-18T01:55:26;99538.38;;;9.59;100.00
24788;BME280;12883;52.662;5.196;2022-11-18T01:58:01;99535.28;;;9.62;100.00
24788;BME280;12883;52.662;5.196;2022-11-18T02:00:28;99516.91;;;9.49;100.00
24788;BME280;12883;52.662;5.196;2022-11-18T02:02:53;99542.41;;;9.61;100.00
24788;BME280;12883;52.662;5.196;2022-11-18T02:05:19;99547.50;;;9.63;100.00
24788;BME280;12883;52.662;5.196;2022-11-18T02:07:45;99550.56;;;9.60;100.00
24788;BME280;12883;52.662;5.196;2022-11-18T02:10:18;99542.50;;;9.55;100.00
24788;BME280;12883;52.662;5.196;2022-11-18T02:12:44;99556.31;;;9.57;100.00
24788;BME280;12883;52.662;5.196;2022-11-18T02:15:09;99566.41;;;9.48;100.00
24788;BME280;12883;52.662;5.196;2022-11-18T02:17:56;99561.03;;;9.55;100.00
24788;BME280;12883;52.662;5.196;2022-11-18T02:20:29;99567.06;;;9.44;100.00
24788;BME280;12883;52.662;5.196;2022-11-18T02:32:10;99581.63;;;9.53;100.00
24788;BME280;12883;52.662;5.196;2022-11-18T02:38:10;99573.84;;;9.40;100.00
24788;BME280;12883;52.662;5.196;2022-11-18T02:40:42;99574.94;;;9.51;100.00
24788;BME280;12883;52.662;5.196;2022-11-18T02:43:09;99515.31;;;9.12;100.00
24788;BME280;12883;52.662;5.196;2022-11-18T02:45:40;99584.88;;;9.55;100.00
24788;BME280;12883;52.662;5.196;2022-11-18T02:48:09;99590.47;;;9.47;100.00
24788;BME280;12883;52.662;5.196;2022-11-18T02:50:36;99522.09;;;9.08;100.00
24788;BME280;12883;52.662;5.196;2022-11-18T02:53:04;99585.97;;;9.48;100.00
24788;BME280;12883;52.662;5.196;2022-11-18T02:55:33;99593.19;;;9.58;100.00
24788;BME280;12883;52.662;5.196;2022-11-18T02:58:01;99587.38;;;9.50;100.00
24788;BME280;12883;52.662;5.196;2022-11-18T03:00:27;99588.41;;;9.49;100.00
24788;BME280;12883;52.662;5.196;2022-11-18T03:02:53;99596.94;;;9.51;100.00
24788;BME280;12883;52.662;5.196;2022-11-18T03:07:53;99605.53;;;9.47;100.00
24788;BME280;12883;52.662;5.196;2022-11-18T03:10:22;99577.38;;;9.34;100.00
24788;BME280;12883;52.662;5.196;2022-11-18T03:13:00;99605.16;;;9.43;100.00
24788;BME280;12883;52.662;5.196;2022-11-18T03:15:43;99603.97;;;9.39;100.00
24788;BME280;12883;52.662;5.196;2022-11-18T03:18:26;99606.94;;;9.49;100.00
24788;BME280;12883;52.662;5.196;2022-11-18T03:21:07;99541.50;;;9.02;100.00
24788;BME280;12883;52.662;5.196;2022-11-18T03:23:43;99560.31;;;9.12;100.00
24788;BME280;12883;52.662;5.196;2022-11-18T03:26:16;99587.50;;;9.19;100.00
24788;BME280;12883;52.662;5.196;2022-11-18T03:28:49;99615.09;;;9.30;100.00
24788;BME280;12883;52.662;5.196;2022-11-18T03:34:01;99617.50;;;9.31;100.00
24788;BME280;12883;52.662;5.196;2022-11-18T03:36:32;99568.69;;;8.91;100.00
24788;BME280;12883;52.662;5.196;2022-11-18T03:39:01;99621.66;;;9.27;100.00
24788;BME280;12883;52.662;5.196;2022-11-18T03:41:32;99626.94;;;9.27;100.00
24788;BME280;12883;52.662;5.196;2022-11-18T03:44:05;99604.41;;;9.18;100.00
24788;BME280;12883;52.662;5.196;2022-11-18T03:46:39;99644.44;;;9.28;100.00
24788;BME280;12883;52.662;5.196;2022-11-18T03:49:09;99651.56;;;9.28;100.00
24788;BME280;12883;52.662;5.196;2022-11-18T03:51:41;99659.50;;;9.28;100.00
24788;BME280;12883;52.662;5.196;2022-11-18T03:54:13;99608.09;;;8.99;100.00
24788;BME280;12883;52.662;5.196;2022-11-18T03:56:45;99651.56;;;9.28;100.00
24788;BME280;12883;52.662;5.196;2022-11-18T03:59:19;99657.06;;;9.26;100.00
24788;BME280;12883;52.662;5.196;2022-11-18T04:01:53;99660.91;;;9.30;100.00
24788;BME280;12883;52.662;5.196;2022-11-18T04:04:22;99666.03;;;9.25;100.00
24788;BME280;12883;52.662;5.196;2022-11-18T04:09:51;99678.75;;;9.17;100.00
24788;BME280;12883;52.662;5.196;2022-11-18T04:12:20;99687.97;;;9.08;100.00
24788;BME280;12883;52.662;5.196;2022-11-18T04:14:47;99683.59;;;9.20;100.00
24788;BME280;12883;52.662;5.196;2022-11-18T04:17:20;99690.97;;;9.18;100.00
24788;BME280;12883;52.662;5.196;2022-11-18T04:19:46;99687.94;;;9.14;100.00
24788;BME280;12883;52.662;5.196;2022-11-18T04:22:11;99687.31;;;9.12;100.00
24788;BME280;12883;52.662;5.196;2022-11-18T04:24:37;99681.06;;;9.07;100.00
24788;BME280;12883;52.662;5.196;2022-11-18T04:27:04;99681.53;;;9.04;100.00
24788;BME280;12883;52.662;5.196;2022-11-18T04:29:30;99690.78;;;9.13;100.00
24788;BME280;12883;52.662;5.196;2022-11-18T04:31:56;99690.59;;;9.14;100.00
24788;BME280;12883;52.662;5.196;2022-11-18T04:34:21;99699.56;;;9.13;100.00
24788;BME280;12883;52.662;5.196;2022-11-18T04:36:47;99697.91;;;9.12;100.00
24788;BME280;12883;52.662;5.196;2022-11-18T04:39:12;99704.69;;;9.08;100.00
24788;BME280;12883;52.662;5.196;2022-11-18T04:41:38;99702.34;;;9.18;100.00
24788;BME280;12883;52.662;5.196;2022-11-18T04:44:26;99708.88;;;8.91;100.00
24788;BME280;12883;52.662;5.196;2022-11-18T04:46:53;99726.03;;;9.13;100.00
24788;BME280;12883;52.662;5.196;2022-11-18T04:49:19;99714.31;;;9.03;100.00
24788;BME280;12883;52.662;5.196;2022-11-18T04:51:44;99708.19;;;9.02;100.00
24788;BME280;12883;52.662;5.196;2022-11-18T04:54:11;99722.44;;;9.01;100.00
24788;BME280;12883;52.662;5.196;2022-11-18T04:56:37;99707.16;;;9.03;100.00
24788;BME280;12883;52.662;5.196;2022-11-18T04:59:04;99670.31;;;8.77;100.00
24788;BME280;12883;52.662;5.196;2022-11-18T05:01:29;99722.00;;;9.04;100.00
24788;BME280;12883;52.662;5.196;2022-11-18T05:03:55;99718.50;;;9.10;100.00
24788;BME280;12883;52.662;5.196;2022-11-18T05:06:21;99722.38;;;9.08;100.00
24788;BME280;12883;52.662;5.196;2022-11-18T05:08:47;99724.88;;;9.03;100.00
24788;BME280;12883;52.662;5.196;2022-11-18T05:11:13;99734.66;;;9.02;100.00
24788;BME280;12883;52.662;5.196;2022-11-18T05:13:57;99729.34;;;9.02;100.00
24788;BME280;12883;52.662;5.196;2022-11-18T05:16:22;99739.13;;;9.02;100.00
24788;BME280;12883;52.662;5.196;2022-11-18T05:18:47;99730.75;;;9.05;100.00
24788;BME280;12883;52.662;5.196;2022-11-18T05:21:13;99743.66;;;9.19;100.00
24788;BME280;12883;52.662;5.196;2022-11-18T05:23:38;99749.84;;;9.13;100.00
24788;BME280;12883;52.662;5.196;2022-11-18T05:26:04;99746.53;;;9.18;100.00
24788;BME280;12883;52.662;5.196;2022-11-18T05:28:31;99752.09;;;9.10;100.00
24788;BME280;12883;52.662;5.196;2022-11-18T05:30:56;99767.91;;;9.16;100.00
24788;BME280;12883;52.662;5.196;2022-11-18T05:33:21;99774.19;;;9.22;100.00
24788;BME280;12883;52.662;5.196;2022-11-18T05:35:47;99766.94;;;9.11;100.00
24788;BME280;12883;52.662;5.196;2022-11-18T05:38:12;99779.72;;;9.20;100.00
24788;BME280;12883;52.662;5.196;2022-11-18T05:40:37;99780.69;;;9.19;100.00
24788;BME280;12883;52.662;5.196;2022-11-18T05:43:03;99765.91;;;9.12;100.00
24788;BME280;12883;52.662;5.196;2022-11-18T05:45:38;99746.47;;;9.00;100.00
24788;BME280;12883;52.662;5.196;2022-11-18T05:48:05;99789.84;;;9.23;100.00
24788;BME280;12883;52.662;5.196;2022-11-18T05:50:33;99786.25;;;9.11;100.00
24788;BME280;12883;52.662;5.196;2022-11-18T05:52:58;99780.31;;;9.16;100.00
24788;BME280;12883;52.662;5.196;2022-11-18T05:55:28;99798.44;;;9.19;100.00
24788;BME280;12883;52.662;5.196;2022-11-18T05:57:54;99798.66;;;9.17;100.00
24788;BME280;12883;52.662;5.196;2022-11-18T06:00:19;99801.72;;;9.14;100.00
24788;BME280;12883;52.662;5.196;2022-11-18T06:02:47;99801.88;;;9.19;100.00
24788;BME280;12883;52.662;5.196;2022-11-18T06:05:13;99804.91;;;9.23;100.00
24788;BME280;12883;52.662;5.196;2022-11-18T06:07:42;99803.66;;;9.25;100.00
24788;BME280;12883;52.662;5.196;2022-11-18T06:10:15;99812.44;;;9.26;100.00
24788;BME280;12883;52.662;5.196;2022-11-18T06:12:44;99808.00;;;9.20;100.00
24788;BME280;12883;52.662;5.196;2022-11-18T06:15:23;99754.50;;;8.87;100.00
24788;BME280;12883;52.662;5.196;2022-11-18T06:17:57;99815.94;;;9.20;100.00
24788;BME280;12883;52.662;5.196;2022-11-18T06:20:24;99811.59;;;9.25;100.00
24788;BME280;12883;52.662;5.196;2022-11-18T06:22:52;99820.41;;;9.19;100.00
24788;BME280;12883;52.662;5.196;2022-11-18T06:25:18;99795.75;;;8.94;100.00
24788;BME280;12883;52.662;5.196;2022-11-18T06:27:45;99828.78;;;9.16;100.00
24788;BME280;12883;52.662;5.196;2022-11-18T06:30:12;99829.38;;;9.18;100.00
24788;BME280;12883;52.662;5.196;2022-11-18T06:32:37;99837.31;;;9.18;100.00
24788;BME280;12883;52.662;5.196;2022-11-18T06:35:03;99837.94;;;9.20;100.00
24788;BME280;12883;52.662;5.196;2022-11-18T06:37:28;99846.84;;;9.26;100.00
24788;BME280;12883;52.662;5.196;2022-11-18T06:39:53;99850.94;;;9.22;100.00
24788;BME280;12883;52.662;5.196;2022-11-18T06:42:19;99849.69;;;9.24;100.00
24788;BME280;12883;52.662;5.196;2022-11-18T06:45:04;99857.03;;;9.22;100.00
24788;BME280;12883;52.662;5.196;2022-11-18T06:47:29;99864.72;;;9.30;100.00
24788;BME280;12883;52.662;5.196;2022-11-18T06:49:55;99864.78;;;9.24;100.00
24788;BME280;12883;52.662;5.196;2022-11-18T06:52:21;99870.22;;;9.29;100.00
24788;BME280;12883;52.662;5.196;2022-11-18T06:54:47;99868.41;;;9.29;100.00
24788;BME280;12883;52.662;5.196;2022-11-18T06:57:12;99868.44;;;9.23;100.00
24788;BME280;12883;52.662;5.196;2022-11-18T06:59:37;99862.81;;;9.13;100.00
24788;BME280;12883;52.662;5.196;2022-11-18T07:02:03;99884.50;;;9.28;100.00
24788;BME280;12883;52.662;5.196;2022-11-18T07:04:28;99883.25;;;9.30;100.00
24788;BME280;12883;52.662;5.196;2022-11-18T07:06:53;99887.97;;;9.28;100.00
24788;BME280;12883;52.662;5.196;2022-11-18T07:09:19;99897.25;;;9.37;100.00
24788;BME280;12883;52.662;5.196;2022-11-18T07:11:44;99901.31;;;9.40;100.00
24788;BME280;12883;52.662;5.196;2022-11-18T07:14:09;99891.56;;;9.40;100.00
24788;BME280;12883;52.662;5.196;2022-11-18T07:16:35;99883.91;;;9.19;100.00
24788;BME280;12883;52.662;5.196;2022-11-18T07:19:01;99900.50;;;9.39;100.00
24788;BME280;12883;52.662;5.196;2022-11-18T07:21:31;99918.63;;;9.42;100.00
24788;BME280;12883;52.662;5.196;2022-11-18T07:23:56;99917.41;;;9.38;100.00
24788;BME280;12883;52.662;5.196;2022-11-18T07:26:22;99911.31;;;9.38;100.00
24788;BME280;12883;52.662;5.196;2022-11-18T07:28:48;99923.72;;;9.44;100.00
24788;BME280;12883;52.662;5.196;2022-11-18T07:31:17;99927.75;;;9.46;100.00
24788;BME280;12883;52.662;5.196;2022-11-18T07:33:45;99932.63;;;9.49;100.00
24788;BME280;12883;52.662;5.196;2022-11-18T07:36:12;99941.34;;;9.56;100.00
24788;BME280;12883;52.662;5.196;2022-11-18T07:38:38;99910.69;;;9.36;100.00
24788;BME280;12883;52.662;5.196;2022-11-18T07:41:05;99936.03;;;9.56;100.00
24788;BME280;12883;52.662;5.196;2022-11-18T07:43:32;99955.72;;;9.66;100.00
24788;BME280;12883;52.662;5.196;2022-11-18T07:45:58;99949.63;;;9.66;100.00
24788;BME280;12883;52.662;5.196;2022-11-18T07:48:23;99963.25;;;9.69;100.00
24788;BME280;12883;52.662;5.196;2022-11-18T07:50:48;99953.66;;;9.68;100.00
24788;BME280;12883;52.662;5.196;2022-11-18T07:53:14;99965.50;;;9.66;100.00
24788;BME280;12883;52.662;5.196;2022-11-18T07:55:39;99966.88;;;9.75;100.00
24788;BME280;12883;52.662;5.196;2022-11-18T07:58:04;99967.75;;;9.69;100.00
24788;BME280;12883;52.662;5.196;2022-11-18T08:00:30;99977.72;;;9.67;100.00
24788;BME280;12883;52.662;5.196;2022-11-18T08:02:55;99986.66;;;9.72;100.00
24788;BME280;12883;52.662;5.196;2022-11-18T08:05:20;99978.88;;;9.77;100.00
24788;BME280;12883;52.662;5.196;2022-11-18T08:07:46;99985.84;;;9.72;100.00
24788;BME280;12883;52.662;5.196;2022-11-18T08:10:11;99990.34;;;9.71;100.00
24788;BME280;12883;52.662;5.196;2022-11-18T08:12:36;99984.41;;;9.76;100.00
24788;BME280;12883;52.662;5.196;2022-11-18T08:15:02;100008.84;;;9.78;100.00
24788;BME280;12883;52.662;5.196;2022-11-18T08:17:27;100003.09;;;9.81;100.00
24788;BME280;12883;52.662;5.196;2022-11-18T08:19:52;100004.50;;;9.83;100.00
24788;BME280;12883;52.662;5.196;2022-11-18T08:22:18;100002.09;;;9.82;100.00
24788;BME280;12883;52.662;5.196;2022-11-18T08:24:45;100008.16;;;9.89;100.00
24788;BME280;12883;52.662;5.196;2022-11-18T08:27:11;100008.16;;;9.89;100.00
24788;BME280;12883;52.662;5.196;2022-11-18T08:29:37;100006.50;;;9.88;100.00
24788;BME280;12883;52.662;5.196;2022-11-18T08:32:02;100016.13;;;9.89;100.00
24788;BME280;12883;52.662;5.196;2022-11-18T08:34:27;100030.94;;;9.96;100.00
24788;BME280;12883;52.662;5.196;2022-11-18T08:36:54;100003.16;;;9.74;100.00
24788;BME280;12883;52.662;5.196;2022-11-18T08:39:19;100032.16;;;9.94;100.00
24788;BME280;12883;52.662;5.196;2022-11-18T08:41:44;100039.09;;;9.95;100.00
24788;BME280;12883;52.662;5.196;2022-11-18T08:44:13;100039.53;;;9.92;100.00
24788;BME280;12883;52.662;5.196;2022-11-18T08:46:40;100035.44;;;9.96;100.00
24788;BME280;12883;52.662;5.196;2022-11-18T08:49:05;100046.03;;;9.96;100.00
24788;BME280;12883;52.662;5.196;2022-11-18T08:51:31;100037.84;;;9.97;100.00
24788;BME280;12883;52.662;5.196;2022-11-18T08:53:56;100028.34;;;9.90;100.00
24788;BME280;12883;52.662;5.196;2022-11-18T08:56:23;100043.75;;;9.99;100.00
24788;BME280;12883;52.662;5.196;2022-11-18T08:58:49;100047.41;;;10.05;100.00
24788;BME280;12883;52.662;5.196;2022-11-18T09:01:15;100034.16;;;9.98;100.00
24788;BME280;12883;52.662;5.196;2022-11-18T09:03:40;100051.88;;;10.11;100.00
24788;BME280;12883;52.662;5.196;2022-11-18T09:06:11;100050.06;;;10.05;100.00
24788;BME280;12883;52.662;5.196;2022-11-18T09:08:37;100069.66;;;10.04;100.00
24788;BME280;12883;52.662;5.196;2022-11-18T09:11:11;100058.41;;;10.08;100.00
24788;BME280;12883;52.662;5.196;2022-11-18T09:13:37;100059.81;;;10.11;100.00
24788;BME280;12883;52.662;5.196;2022-11-18T09:16:03;100059.75;;;10.17;100.00
24788;BME280;12883;52.662;5.196;2022-11-18T09:18:29;100069.50;;;10.23;100.00
24788;BME280;12883;52.662;5.196;2022-11-18T09:20:56;100064.28;;;10.17;100.00
24788;BME280;12883;52.662;5.196;2022-11-18T09:23:22;100067.53;;;10.12;100.00
24788;BME280;12883;52.662;5.196;2022-11-18T09:25:47;100070.56;;;10.16;100.00
24788;BME280;12883;52.662;5.196;2022-11-18T09:28:13;100076.66;;;10.23;100.00
24788;BME280;12883;52.662;5.196;2022-11-18T09:30:38;100072.84;;;10.12;100.00
24788;BME280;12883;52.662;5.196;2022-11-18T09:33:03;100087.50;;;10.15;100.00
24788;BME280;12883;52.662;5.196;2022-11-18T09:35:31;100083.81;;;10.16;100.00
24788;BME280;12883;52.662;5.196;2022-11-18T09:37:57;100099.72;;;10.16;100.00
24788;BME280;12883;52.662;5.196;2022-11-18T09:40:23;100093.19;;;10.18;100.00
24788;BME280;12883;52.662;5.196;2022-11-18T09:43:27;100095.47;;;10.15;100.00
24788;BME280;12883;52.662;5.196;2022-11-18T09:46:02;100090.50;;;10.25;100.00
24788;BME280;12883;52.662;5.196;2022-11-18T09:48:35;100086.47;;;10.16;100.00
24788;BME280;12883;52.662;5.196;2022-11-18T09:51:21;100101.31;;;10.30;100.00
24788;BME280;12883;52.662;5.196;2022-11-18T09:53:49;100103.94;;;10.30;100.00
24788;BME280;12883;52.662;5.196;2022-11-18T09:56:15;100112.44;;;10.38;100.00
24788;BME280;12883;52.662;5.196;2022-11-18T09:58:41;100107.75;;;10.40;100.00
24788;BME280;12883;52.662;5.196;2022-11-18T10:01:16;100124.47;;;10.41;100.00
24788;BME280;12883;52.662;5.196;2022-11-18T10:03:42;100111.63;;;10.38;100.00
24788;BME280;12883;52.662;5.196;2022-11-18T10:15:03;100158.47;;;10.50;100.00
24788;BME280;12883;52.662;5.196;2022-11-18T10:17:35;100136.31;;;10.63;100.00
24788;BME280;12883;52.662;5.196;2022-11-18T10:25:47;100135.75;;;10.61;100.00
24788;BME280;12883;52.662;5.196;2022-11-18T10:28:22;100150.34;;;10.70;100.00
24788;BME280;12883;52.662;5.196;2022-11-18T10:30:48;100145.91;;;10.64;100.00
24788;BME280;12883;52.662;5.196;2022-11-18T10:33:18;100152.63;;;10.66;100.00
24788;BME280;12883;52.662;5.196;2022-11-18T10:35:47;100124.84;;;10.44;100.00
24788;BME280;12883;52.662;5.196;2022-11-18T10:41:01;100164.66;;;10.69;100.00
24788;BME280;12883;52.662;5.196;2022-11-18T10:43:52;100164.63;;;10.75;100.00
24788;BME280;12883;52.662;5.196;2022-11-18T10:46:25;100177.13;;;10.68;100.00
24788;BME280;12883;52.662;5.196;2022-11-18T10:51:36;100173.81;;;10.73;100.00
24788;BME280;12883;52.662;5.196;2022-11-18T10:59:27;100175.25;;;10.69;100.00
24788;BME280;12883;52.662;5.196;2022-11-18T11:04:36;100183.88;;;10.64;100.00
24788;BME280;12883;52.662;5.196;2022-11-18T11:07:33;100179.16;;;10.66;100.00
24788;BME280;12883;52.662;5.196;2022-11-18T11:12:34;100194.59;;;10.76;100.00
24788;BME280;12883;52.662;5.196;2022-11-18T11:18:00;100194.88;;;10.68;100.00
24788;BME280;12883;52.662;5.196;2022-11-18T11:20:45;100183.06;;;10.64;100.00
24788;BME280;12883;52.662;5.196;2022-11-18T11:23:12;100179.03;;;10.55;100.00
24788;BME280;12883;52.662;5.196;2022-11-18T11:28:08;100201.16;;;10.73;100.00
24788;BME280;12883;52.662;5.196;2022-11-18T11:30:45;100199.31;;;10.74;100.00
24788;BME280;12883;52.662;5.196;2022-11-18T11:33:21;100196.84;;;10.79;100.00
24788;BME280;12883;52.662;5.196;2022-11-18T11:36:02;100211.78;;;10.98;100.00
24788;BME280;12883;52.662;5.196;2022-11-18T11:38:55;100204.09;;;10.90;100.00
24788;BME280;12883;52.662;5.196;2022-11-18T11:41:29;100198.78;;;10.90;100.00
24788;BME280;12883;52.662;5.196;2022-11-18T11:50:00;100219.53;;;10.99;100.00
24788;BME280;12883;52.662;5.196;2022-11-18T11:55:11;100211.66;;;11.17;100.00
24788;BME280;12883;52.662;5.196;2022-11-18T11:58:03;100211.03;;;11.15;100.00
24788;BME280;12883;52.662;5.196;2022-11-18T12:00:39;100210.78;;;11.23;100.00
24788;BME280;12883;52.662;5.196;2022-11-18T12:05:45;100214.22;;;11.24;100.00
24788;BME280;12883;52.662;5.196;2022-11-18T12:10:55;100222.66;;;11.21;100.00
24788;BME280;12883;52.662;5.196;2022-11-18T12:19:10;100230.75;;;11.26;100.00
24788;BME280;12883;52.662;5.196;2022-11-18T12:35:20;100234.78;;;11.53;100.00
24788;BME280;12883;52.662;5.196;2022-11-18T12:42:58;100236.31;;;11.67;100.00
24788;BME280;12883;52.662;5.196;2022-11-18T12:48:36;100254.16;;;11.60;100.00
24788;BME280;12883;52.662;5.196;2022-11-18T12:53:44;100256.50;;;11.50;100.00
24788;BME280;12883;52.662;5.196;2022-11-18T12:58:49;100257.44;;;11.62;100.00
24788;BME280;12883;52.662;5.196;2022-11-18T13:01:18;100259.50;;;11.60;100.00
24788;BME280;12883;52.662;5.196;2022-11-18T13:03:44;100263.22;;;11.52;100.00
24788;BME280;12883;52.662;5.196;2022-11-18T13:06:18;100250.66;;;11.41;100.00
24788;BME280;12883;52.662;5.196;2022-11-18T13:08:50;100272.81;;;11.53;100.00
24788;BME280;12883;52.662;5.196;2022-11-18T13:11:17;100250.09;;;11.33;100.00
24788;BME280;12883;52.662;5.196;2022-11-18T13:14:03;100270.59;;;11.50;100.00
24788;BME280;12883;52.662;5.196;2022-11-18T13:16:48;100273.47;;;11.49;100.00
24788;BME280;12883;52.662;5.196;2022-11-18T13:19:36;100279.44;;;11.44;100.00
24788;BME280;12883;52.662;5.196;2022-11-18T13:22:02;100238.13;;;11.24;100.00
24788;BME280;12883;52.662;5.196;2022-11-18T13:24:51;100275.03;;;11.56;100.00
24788;BME280;12883;52.662;5.196;2022-11-18T13:30:00;100272.22;;;11.51;100.00
24788;BME280;12883;52.662;5.196;2022-11-18T13:32:27;100283.88;;;11.50;100.00
24788;BME280;12883;52.662;5.196;2022-11-18T13:34:57;100293.31;;;11.46;100.00
24788;BME280;12883;52.662;5.196;2022-11-18T13:37:28;100294.56;;;11.44;100.00
24788;BME280;12883;52.662;5.196;2022-11-18T13:39:55;100294.34;;;11.45;100.00
24788;BME280;12883;52.662;5.196;2022-11-18T13:42:22;100299.19;;;11.55;100.00
24788;BME280;12883;52.662;5.196;2022-11-18T13:47:25;100288.97;;;11.27;100.00
24788;BME280;12883;52.662;5.196;2022-11-18T13:49:57;100304.03;;;11.33;100.00
24788;BME280;12883;52.662;5.196;2022-11-18T13:52:47;100301.38;;;11.33;100.00
24788;BME280;12883;52.662;5.196;2022-11-18T13:55:24;100307.16;;;11.30;100.00
24788;BME280;12883;52.662;5.196;2022-11-18T14:00:41;100308.72;;;11.38;100.00
24788;BME280;12883;52.662;5.196;2022-11-18T14:03:30;100304.25;;;11.32;100.00
24788;BME280;12883;52.662;5.196;2022-11-18T14:05:57;100308.81;;;11.25;100.00
24788;BME280;12883;52.662;5.196;2022-11-18T14:08:28;100305.88;;;11.33;100.00
24788;BME280;12883;52.662;5.196;2022-11-18T14:10:54;100304.50;;;11.30;100.00
24788;BME280;12883;52.662;5.196;2022-11-18T14:13:50;100303.66;;;11.30;100.00
24788;BME280;12883;52.662;5.196;2022-11-18T14:18:46;100315.59;;;11.21;100.00
24788;BME280;12883;52.662;5.196;2022-11-18T14:21:12;100313.53;;;11.23;100.00
24788;BME280;12883;52.662;5.196;2022-11-18T14:23:41;100314.13;;;11.25;100.00
24788;BME280;12883;52.662;5.196;2022-11-18T14:26:07;100322.69;;;11.27;100.00
24788;BME280;12883;52.662;5.196;2022-11-18T14:28:35;100329.63;;;11.28;100.00
24788;BME280;12883;52.662;5.196;2022-11-18T14:33:30;100336.66;;;11.16;100.00
24788;BME280;12883;52.662;5.196;2022-11-18T14:38:47;100353.31;;;10.92;100.00
24788;BME280;12883;52.662;5.196;2022-11-18T14:41:16;100349.75;;;10.80;100.00
24788;BME280;12883;52.662;5.196;2022-11-18T14:44:02;100348.53;;;10.76;100.00
24788;BME280;12883;52.662;5.196;2022-11-18T14:46:27;100345.47;;;10.72;100.00
24788;BME280;12883;52.662;5.196;2022-11-18T14:48:53;100353.25;;;10.67;100.00
24788;BME280;12883;52.662;5.196;2022-11-18T14:51:18;100338.06;;;10.43;100.00
24788;BME280;12883;52.662;5.196;2022-11-18T14:53:44;100358.25;;;10.51;100.00
24788;BME280;12883;52.662;5.196;2022-11-18T14:56:18;100368.47;;;10.41;100.00
24788;BME280;12883;52.662;5.196;2022-11-18T14:58:45;100342.22;;;10.20;100.00
24788;BME280;12883;52.662;5.196;2022-11-18T15:01:11;100372.97;;;10.34;100.00
24788;BME280;12883;52.662;5.196;2022-11-18T15:03:36;100379.94;;;10.22;100.00
24788;BME280;12883;52.662;5.196;2022-11-18T15:06:02;100383.59;;;10.21;100.00